Time;durP1;ratioP1;P1;durP2;ratioP2;P2;SDS_P1;SDS_P2;PMS_P1;PMS_P2;Temp;Humidity;BMP_temperature;BMP_pressure;BME280_temperature;BME280_humidity;BME280_pressure;Samples;Min_cycle;Max_cycle;Signal;HPM_P1;HPM_P2
2022/11/08 00:01:46;;;;;;;;;;;;;;;22.63;57.88;97475.79;583237;243;65145;-73
2022/11/08 00:04:15;;;;;;;;;;;;;;;22.63;58.12;97471.23;580712;244;68697;-73
2022/11/08 00:14:59;;;;;;;;;;;;;;;22.62;58.00;97466.95;580617;244;70913;-72
2022/11/08 00:17:28;;;;;;;;;;;;;;;22.61;58.22;97460.77;580663;244;65191;-72
2022/11/08 00:19:56;;;;;;;;;;;;;;;22.61;58.13;97462.66;580642;244;68680;-68
2022/11/08 00:22:24;;;;;;;;;;;;;;;22.61;58.58;97459.97;580678;244;66513;-68
2022/11/08 00:24:51;;;;;;;;;;;;;;;22.60;58.40;97459.17;580661;244;63010;-67
2022/11/08 00:27:20;;;;;;;;;;;;;;;22.60;58.44;97464.53;580607;241;68667;-68
2022/11/08 00:29:48;;;;;;;;;;;;;;;22.61;58.66;97465.33;580639;244;68653;-72
2022/11/08 00:32:17;;;;;;;;;;;;;;;22.60;58.43;97467.21;580665;244;65375;-72
2022/11/08 00:34:45;;;;;;;;;;;;;;;22.60;58.21;97458.38;580672;244;68243;-72
2022/11/08 00:37:13;;;;;;;;;;;;;;;22.60;58.71;97461.06;580680;244;68791;-72
2022/11/08 00:39:41;;;;;;;;;;;;;;;22.59;58.34;97457.58;580648;244;64663;-74
2022/11/08 00:42:08;;;;;;;;;;;;;;;22.60;58.62;97453.02;580630;244;68902;-72
2022/11/08 00:44:37;;;;;;;;;;;;;;;22.59;58.36;97456.78;580636;242;68521;-72
2022/11/08 00:47:04;;;;;;;;;;;;;;;22.59;58.49;97457.58;580649;244;64926;-72
2022/11/08 00:49:32;;;;;;;;;;;;;;;22.59;58.70;97462.14;580673;244;66625;-72
2022/11/08 00:51:59;;;;;;;;;;;;;;;22.59;58.32;97460.27;580642;244;66535;-73
2022/11/08 00:54:27;;;;;;;;;;;;;;;22.57;58.45;97454.36;580630;244;63645;-73
2022/11/08 00:56:54;;;;;;;;;;;;;;;22.60;58.35;97461.06;580671;241;68365;-72
2022/11/08 00:59:22;;;;;;;;;;;;;;;22.57;58.54;97459.72;580626;244;68331;-68
2022/11/08 01:01:49;;;;;;;;;;;;;;;22.59;58.33;97456.78;580684;241;64911;-72
2022/11/08 01:04:17;;;;;;;;;;;;;;;22.57;58.46;97449.00;580651;244;68451;-68
2022/11/08 01:06:45;;;;;;;;;;;;;;;22.58;58.17;97450.60;580641;244;68439;-68
2022/11/08 01:09:12;;;;;;;;;;;;;;;22.56;58.53;97441.23;580650;244;64928;-68
2022/11/08 01:11:45;;;;;;;;;;;;;;;22.57;58.51;97440.97;580649;244;68342;-68
2022/11/08 01:14:10;;;;;;;;;;;;;;;22.56;58.21;97436.70;580616;244;68415;-72
2022/11/08 01:16:37;;;;;;;;;;;;;;;22.56;58.40;97436.70;580646;244;65249;-72
2022/11/08 01:19:05;;;;;;;;;;;;;;;22.55;58.54;97435.07;580620;244;68533;-72
2022/11/08 01:21:32;;;;;;;;;;;;;;;22.55;58.23;97429.72;580630;244;68272;-72
2022/11/08 01:24:00;;;;;;;;;;;;;;;22.56;58.84;97427.84;580620;241;64861;-72
2022/11/08 01:26:28;;;;;;;;;;;;;;;22.55;58.72;97429.72;580687;244;68657;-72
2022/11/08 01:28:56;;;;;;;;;;;;;;;22.55;58.47;97434.28;580592;244;68929;-72
2022/11/08 01:31:24;;;;;;;;;;;;;;;22.54;58.29;97432.68;580628;244;64972;-72
2022/11/08 01:33:52;;;;;;;;;;;;;;;22.54;58.79;97430.80;580616;244;66386;-72
2022/11/08 01:36:21;;;;;;;;;;;;;;;22.54;58.23;97435.36;580631;244;66487;-73
2022/11/08 01:38:49;;;;;;;;;;;;;;;22.53;58.48;97426.50;580632;244;64092;-72
2022/11/08 01:41:18;;;;;;;;;;;;;;;22.54;58.33;97432.68;580679;244;68634;-72
2022/11/08 01:43:47;;;;;;;;;;;;;;;22.53;58.46;97431.86;580619;244;66661;-72
2022/11/08 01:46:32;;;;;;;;;;;;;;;22.53;58.86;97425.70;580658;244;64935;-72
2022/11/08 01:49:17;;;;;;;;;;;;;;;22.53;58.56;97428.38;580621;244;68549;-72
2022/11/08 01:52:05;;;;;;;;;;;;;;;22.52;58.79;97432.14;580647;244;68490;-74
2022/11/08 01:54:34;;;;;;;;;;;;;;;22.51;58.63;97422.52;580621;244;63001;-72
2022/11/08 01:57:04;;;;;;;;;;;;;;;22.51;58.48;97428.67;580634;240;66769;-72
2022/11/08 01:59:32;;;;;;;;;;;;;;;22.50;58.41;97427.05;580678;244;68599;-73
2022/11/08 02:02:00;;;;;;;;;;;;;;;22.50;59.53;97426.25;581448;243;62769;-73
2022/11/08 02:04:27;;;;;;;;;;;;;;;22.50;58.99;97428.92;583798;243;66513;-73
2022/11/08 02:06:56;;;;;;;;;;;;;;;22.49;58.78;97430.80;583786;243;66471;-73
2022/11/08 02:09:23;;;;;;;;;;;;;;;22.49;59.19;97440.72;583785;243;63037;-73
2022/11/08 02:11:51;;;;;;;;;;;;;;;22.48;58.71;97431.06;583873;243;66298;-69
2022/11/08 02:14:19;;;;;;;;;;;;;;;22.49;58.80;97438.05;583802;243;68427;-69
2022/11/08 02:16:46;;;;;;;;;;;;;;;22.49;59.71;97435.36;583804;243;62785;-68
2022/11/08 02:19:15;;;;;;;;;;;;;;;22.48;59.08;97442.60;583795;243;66231;-69
2022/11/08 02:21:44;;;;;;;;;;;;;;;22.47;58.85;97446.34;583829;238;66286;-68
2022/11/08 02:24:12;;;;;;;;;;;;;;;22.47;59.65;97448.22;583376;241;61723;-69
2022/11/08 02:26:40;;;;;;;;;;;;;;;22.47;60.15;97435.62;583788;243;66379;-69
2022/11/08 02:29:26;;;;;;;;;;;;;;;22.46;58.90;97436.70;583837;243;66168;-69
2022/11/08 02:31:54;;;;;;;;;;;;;;;22.46;60.55;97442.06;583814;243;65230;-69
2022/11/08 02:34:23;;;;;;;;;;;;;;;22.46;59.42;97442.06;583826;243;68789;-73
2022/11/08 02:36:50;;;;;;;;;;;;;;;22.46;59.55;97438.59;583833;243;68554;-73
2022/11/08 02:39:18;;;;;;;;;;;;;;;22.45;59.08;97426.25;583876;243;64943;-73
2022/11/08 02:41:45;;;;;;;;;;;;;;;22.45;59.98;97426.25;583840;243;68351;-69
2022/11/08 02:44:13;;;;;;;;;;;;;;;22.44;59.18;97424.66;583790;243;68617;-69
2022/11/08 02:46:40;;;;;;;;;;;;;;;22.44;58.89;97427.34;583843;243;64983;-69
2022/11/08 02:49:08;;;;;;;;;;;;;;;22.44;59.99;97430.02;583812;243;68462;-69
2022/11/08 02:51:35;;;;;;;;;;;;;;;22.43;59.12;97431.09;583875;243;68324;-69
2022/11/08 02:54:02;;;;;;;;;;;;;;;22.43;59.09;97431.09;583832;243;64881;-69
2022/11/08 02:56:30;;;;;;;;;;;;;;;22.44;59.48;97432.69;583846;243;68324;-69
2022/11/08 02:58:58;;;;;;;;;;;;;;;22.42;59.82;97435.62;583787;243;68423;-69
2022/11/08 03:01:25;;;;;;;;;;;;;;;22.42;59.33;97434.83;583822;243;62864;-69
2022/11/08 03:03:53;;;;;;;;;;;;;;;22.41;59.72;97433.23;583877;243;65981;-72
2022/11/08 03:06:20;;;;;;;;;;;;;;;22.41;59.68;97439.38;583827;243;68318;-73
2022/11/08 03:08:48;;;;;;;;;;;;;;;22.42;59.35;97445.54;583815;243;64890;-73
2022/11/08 03:11:15;;;;;;;;;;;;;;;22.41;59.60;97446.63;583817;243;68786;-73
2022/11/08 03:13:43;;;;;;;;;;;;;;;22.40;59.71;97440.47;583839;243;68363;-73
2022/11/08 03:16:10;;;;;;;;;;;;;;;22.41;60.49;97450.09;583829;243;64891;-73
2022/11/08 03:18:37;;;;;;;;;;;;;;;22.39;59.89;97449.55;583827;243;68440;-73
2022/11/08 03:21:05;;;;;;;;;;;;;;;22.39;60.53;97449.55;583818;243;68501;-73
2022/11/08 03:23:32;;;;;;;;;;;;;;;22.37;60.81;97444.48;583842;243;64888;-73
2022/11/08 03:26:01;;;;;;;;;;;;;;;22.39;60.95;97455.70;583838;243;66307;-73
2022/11/08 03:28:29;;;;;;;;;;;;;;;22.38;59.46;97453.31;583822;243;68359;-73
2022/11/08 03:30:57;;;;;;;;;;;;;;;22.38;60.49;97453.31;583884;243;64925;-73
2022/11/08 03:33:24;;;;;;;;;;;;;;;22.37;60.88;97449.84;583799;243;66153;-73
2022/11/08 03:35:52;;;;;;;;;;;;;;;22.36;59.42;97458.13;583821;241;67114;-73
2022/11/08 03:38:19;;;;;;;;;;;;;;;22.37;60.08;97454.38;583837;243;62777;-73
2022/11/08 03:40:47;;;;;;;;;;;;;;;22.36;61.20;97458.13;583836;243;68234;-73
2022/11/08 03:43:15;;;;;;;;;;;;;;;22.35;60.36;97457.33;583847;243;68324;-73
2022/11/08 03:45:42;;;;;;;;;;;;;;;22.35;60.47;97460.02;583838;243;64940;-73
2022/11/08 03:48:10;;;;;;;;;;;;;;;22.34;59.83;97455.74;583833;240;68364;-73
2022/11/08 03:50:37;;;;;;;;;;;;;;;22.34;60.73;97453.06;583835;243;67999;-73
2022/11/08 03:53:05;;;;;;;;;;;;;;;22.34;60.53;97462.95;583842;241;64914;-69
2022/11/08 03:55:32;;;;;;;;;;;;;;;22.34;61.11;97453.06;583858;243;68446;-73
2022/11/08 03:58:01;;;;;;;;;;;;;;;22.33;60.86;97458.67;583757;243;46257;-73
2022/11/08 04:00:29;;;;;;;;;;;;;;;22.32;60.27;97455.20;583815;243;64928;-73
2022/11/08 04:03:01;;;;;;;;;;;;;;;22.32;60.97;97452.52;583800;241;69278;-73
2022/11/08 04:05:28;;;;;;;;;;;;;;;22.32;61.08;97457.88;583821;243;66363;-73
2022/11/08 04:07:56;;;;;;;;;;;;;;;22.33;60.45;97458.67;583874;243;62885;-73
2022/11/08 04:10:23;;;;;;;;;;;;;;;22.31;60.66;97460.81;583788;243;66255;-73
2022/11/08 04:15:36;;;;;;;;;;;;;;;22.31;61.33;97456.25;583842;243;65214;-68
2022/11/08 04:23:35;;;;;;;;;;;;;;;22.28;60.69;97454.11;583794;243;63225;-68
2022/11/08 04:26:10;;;;;;;;;;;;;;;22.28;60.34;97445.28;583865;243;68650;-68
2022/11/08 04:28:37;;;;;;;;;;;;;;;22.28;60.82;97453.31;583810;243;66279;-69
2022/11/08 04:31:06;;;;;;;;;;;;;;;22.27;60.20;97454.40;583802;243;62855;-68
2022/11/08 04:33:34;;;;;;;;;;;;;;;22.27;60.83;97449.05;583813;243;68351;-72
2022/11/08 04:36:06;;;;;;;;;;;;;;;22.26;61.37;97445.57;583804;243;68302;-68
2022/11/08 04:38:34;;;;;;;;;;;;;;;22.25;59.92;97451.17;583821;243;63214;-68
2022/11/08 04:41:03;;;;;;;;;;;;;;;22.25;59.79;97456.53;583877;243;67157;-68
2022/11/08 04:43:31;;;;;;;;;;;;;;;22.25;60.20;97457.33;583814;243;66343;-68
2022/11/08 04:46:00;;;;;;;;;;;;;;;22.24;60.14;97461.09;583822;240;62848;-72
2022/11/08 04:48:27;;;;;;;;;;;;;;;22.24;60.15;97461.09;583651;241;66194;-72
2022/11/08 04:50:55;;;;;;;;;;;;;;;22.24;60.34;97457.62;583800;243;66242;-72
2022/11/08 04:53:22;;;;;;;;;;;;;;;22.24;61.01;97465.65;583839;243;62780;-72
2022/11/08 04:55:50;;;;;;;;;;;;;;;22.23;60.75;97462.14;583783;243;66182;-72
2022/11/08 04:58:17;;;;;;;;;;;;;;;22.22;60.58;97468.58;583795;241;66276;-73
2022/11/08 05:00:45;;;;;;;;;;;;;;;22.22;60.59;97471.25;583782;243;63646;-72
2022/11/08 05:03:12;;;;;;;;;;;;;;;22.22;60.33;97473.94;581396;241;68358;-72
2022/11/08 05:05:40;;;;;;;;;;;;;;;22.23;61.00;97474.73;580729;244;67777;-73
2022/11/08 05:08:07;;;;;;;;;;;;;;;22.21;60.92;97480.38;580689;244;62586;-73
2022/11/08 05:10:35;;;;;;;;;;;;;;;22.22;61.22;97478.48;580658;244;66025;-73
2022/11/08 05:13:02;;;;;;;;;;;;;;;22.19;60.77;97474.47;580642;244;68356;-72
2022/11/08 05:15:30;;;;;;;;;;;;;;;22.21;60.89;97482.22;580683;244;62748;-72
2022/11/08 05:17:57;;;;;;;;;;;;;;;22.20;61.42;97481.42;580727;244;65908;-72
2022/11/08 05:23:25;;;;;;;;;;;;;;;22.19;60.74;97485.18;580650;244;65220;-73
2022/11/08 05:25:54;;;;;;;;;;;;;;;22.20;61.94;97476.06;580689;244;66222;-73
2022/11/08 05:28:21;;;;;;;;;;;;;;;22.19;60.62;97477.15;580669;244;66451;-73
2022/11/08 05:30:53;;;;;;;;;;;;;;;22.19;61.55;97484.38;580675;244;65037;-73
2022/11/08 05:33:21;;;;;;;;;;;;;;;22.19;60.63;97482.50;580684;244;68151;-73
2022/11/08 05:35:49;;;;;;;;;;;;;;;22.19;61.20;97482.50;580667;242;68262;-73
2022/11/08 05:38:17;;;;;;;;;;;;;;;22.20;61.34;97485.98;580644;244;64918;-73
2022/11/08 05:40:45;;;;;;;;;;;;;;;22.20;61.28;97489.45;580639;244;68789;-73
2022/11/08 05:43:12;;;;;;;;;;;;;;;22.22;61.18;97489.20;580662;244;66440;-73
2022/11/08 05:45:40;;;;;;;;;;;;;;;22.22;60.85;97492.67;580657;244;63874;-73
2022/11/08 05:48:07;;;;;;;;;;;;;;;22.23;60.76;97493.47;580673;244;68372;-73
2022/11/08 05:50:35;;;;;;;;;;;;;;;22.26;60.90;97499.12;580646;244;68303;-73
2022/11/08 05:53:07;;;;;;;;;;;;;;;22.27;61.13;97492.68;580517;244;43224;-72
2022/11/08 05:55:35;;;;;;;;;;;;;;;22.28;59.92;97498.83;580655;244;68363;-72
2022/11/08 05:58:02;;;;;;;;;;;;;;;22.29;59.45;97495.07;580669;244;68410;-74
2022/11/08 06:00:30;;;;;;;;;;;;;;;22.32;60.73;97500.72;580631;244;63681;-73
2022/11/08 06:02:57;;;;;;;;;;;;;;;22.33;59.59;97502.31;582658;241;68223;-73
2022/11/08 06:05:25;;;;;;;;;;;;;;;22.34;59.82;97498.58;583797;243;66271;-73
2022/11/08 06:07:53;;;;;;;;;;;;;;;22.37;59.95;97503.40;583796;243;62757;-72
2022/11/08 06:10:21;;;;;;;;;;;;;;;22.39;59.84;97511.15;583814;243;66186;-72
2022/11/08 06:12:48;;;;;;;;;;;;;;;22.42;59.69;97509.81;583850;243;68472;-74
2022/11/08 06:15:16;;;;;;;;;;;;;;;22.43;59.27;97508.76;583775;243;65095;-73
2022/11/08 06:17:43;;;;;;;;;;;;;;;22.45;59.99;97509.27;583777;243;68382;-68
2022/11/08 06:20:14;;;;;;;;;;;;;;;22.48;59.44;97508.73;583811;243;68351;-70
2022/11/08 06:22:42;;;;;;;;;;;;;;;22.50;59.84;97509.27;583789;243;65243;-68
2022/11/08 06:25:10;;;;;;;;;;;;;;;22.53;58.84;97511.41;583811;243;66573;-68
2022/11/08 06:27:37;;;;;;;;;;;;;;;22.55;59.00;97514.63;583742;240;66807;-68
2022/11/08 06:30:05;;;;;;;;;;;;;;;22.59;58.65;97513.84;583512;243;62764;-67
2022/11/08 06:32:33;;;;;;;;;;;;;;;22.62;58.65;97515.17;583769;243;68856;-68
2022/11/08 06:35:00;;;;;;;;;;;;;;;22.64;58.41;97513.01;583791;240;68649;-67
2022/11/08 06:37:28;;;;;;;;;;;;;;;22.68;58.58;97519.45;583815;243;64953;-68
2022/11/08 06:39:55;;;;;;;;;;;;;;;22.70;58.90;97517.31;583779;240;68650;-67
2022/11/08 06:42:25;;;;;;;;;;;;;;;22.72;58.73;97515.14;583696;243;47348;-68
2022/11/08 06:44:52;;;;;;;;;;;;;;;22.76;58.63;97513.55;583804;243;64951;-68
2022/11/08 06:47:20;;;;;;;;;;;;;;;22.78;58.46;97508.73;583786;243;68388;-68
2022/11/08 06:49:47;;;;;;;;;;;;;;;22.82;58.82;97512.45;583817;243;68483;-68
2022/11/08 06:52:15;;;;;;;;;;;;;;;22.84;58.60;97517.56;583747;243;64876;-67
2022/11/08 06:54:42;;;;;;;;;;;;;;;22.87;58.28;97514.33;583726;243;68901;-68
2022/11/08 06:57:09;;;;;;;;;;;;;;;22.90;58.48;97510.31;583731;243;69581;-69
2022/11/08 06:59:38;;;;;;;;;;;;;;;22.94;58.80;97519.41;583062;243;62842;-68
2022/11/08 07:02:06;;;;;;;;;;;;;;;22.96;58.19;97511.93;590326;240;66337;-70
2022/11/08 07:04:33;;;;;;;;;;;;;;;22.98;58.58;97504.42;591478;240;66487;-68
2022/11/08 07:07:01;;;;;;;;;;;;;;;23.00;58.11;97497.72;591120;240;63827;-68
2022/11/08 07:09:28;;;;;;;;;;;;;;;23.03;58.20;97491.02;590850;239;69605;-67
2022/11/08 07:11:56;;;;;;;;;;;;;;;23.05;58.36;97499.56;591325;240;66615;-67
2022/11/08 07:14:24;;;;;;;;;;;;;;;23.07;58.04;97500.10;591332;240;62975;-68
2022/11/08 07:16:51;;;;;;;;;;;;;;;23.09;57.54;97491.80;591472;239;66772;-68
2022/11/08 07:19:18;;;;;;;;;;;;;;;23.10;57.58;97496.88;591458;240;66596;-65
2022/11/08 07:21:46;;;;;;;;;;;;;;;23.13;57.86;97488.28;591417;239;63842;-68
2022/11/08 07:24:13;;;;;;;;;;;;;;;23.14;57.44;97484.55;591438;240;68663;-68
2022/11/08 07:26:41;;;;;;;;;;;;;;;23.15;57.73;97491.50;591344;240;68550;-68
2022/11/08 07:29:11;;;;;;;;;;;;;;;23.17;55.93;97486.67;591451;239;46901;-72
2022/11/08 07:31:38;;;;;;;;;;;;;;;23.19;55.72;97481.84;591437;240;68700;-73
2022/11/08 07:34:06;;;;;;;;;;;;;;;23.20;55.31;97483.44;591420;240;68346;-74
2022/11/08 07:36:33;;;;;;;;;;;;;;;23.22;55.36;97472.45;591327;240;64885;-74
2022/11/08 07:39:01;;;;;;;;;;;;;;;23.22;54.68;97478.62;591401;240;66494;-75
2022/11/08 07:41:28;;;;;;;;;;;;;;;23.24;55.02;97476.47;591417;240;66861;-66
2022/11/08 07:43:56;;;;;;;;;;;;;;;23.25;54.49;97483.42;591419;240;62870;-68
2022/11/08 07:46:23;;;;;;;;;;;;;;;23.25;54.50;97486.11;591407;240;66502;-68
2022/11/08 07:48:51;;;;;;;;;;;;;;;23.28;54.26;97484.77;591341;240;68399;-68
2022/11/08 07:51:18;;;;;;;;;;;;;;;23.30;54.98;97487.98;591389;240;64974;-68
2022/11/08 07:53:46;;;;;;;;;;;;;;;23.31;54.47;97491.45;591450;240;66343;-69
2022/11/08 07:56:13;;;;;;;;;;;;;;;23.31;54.49;97494.94;591426;240;66560;-71
2022/11/08 07:58:40;;;;;;;;;;;;;;;23.32;54.49;97493.84;591402;240;62796;-68
2022/11/08 08:01:08;;;;;;;;;;;;;;;23.33;54.46;97497.36;591337;240;68325;-68
2022/11/08 08:03:36;;;;;;;;;;;;;;;23.33;54.85;97495.47;586109;240;68687;-70
2022/11/08 08:06:03;;;;;;;;;;;;;;;23.34;54.37;97496.27;585782;242;65316;-67
2022/11/08 08:08:31;;;;;;;;;;;;;;;23.36;54.19;97499.48;585873;242;69082;-74
2022/11/08 08:10:59;;;;;;;;;;;;;;;23.38;55.11;97505.36;585692;242;69482;-68
2022/11/08 08:13:27;;;;;;;;;;;;;;;23.38;55.06;97505.36;585820;242;65018;-69
2022/11/08 08:15:56;;;;;;;;;;;;;;;23.39;54.56;97501.61;585838;242;68852;-70
2022/11/08 08:18:23;;;;;;;;;;;;;;;23.38;54.29;97503.50;585690;242;66528;-68
2022/11/08 08:20:51;;;;;;;;;;;;;;;23.39;54.25;97504.30;585830;242;63128;-68
2022/11/08 08:23:18;;;;;;;;;;;;;;;23.39;53.67;97509.66;585862;242;66634;-68
2022/11/08 08:25:46;;;;;;;;;;;;;;;23.40;54.08;97512.05;585726;242;66615;-69
2022/11/08 08:28:13;;;;;;;;;;;;;;;23.42;54.41;97507.22;585815;242;62815;-69
2022/11/08 08:30:41;;;;;;;;;;;;;;;23.44;54.69;97515.01;585761;242;68749;-68
2022/11/08 08:33:10;;;;;;;;;;;;;;;23.45;54.65;97514.72;585782;242;68800;-69
2022/11/08 08:35:37;;;;;;;;;;;;;;;23.45;55.05;97521.97;585798;242;64959;-68
2022/11/08 08:38:06;;;;;;;;;;;;;;;23.47;54.61;97522.50;585798;242;68811;-68
2022/11/08 08:40:33;;;;;;;;;;;;;;;23.46;54.22;97516.34;585777;242;68708;-68
2022/11/08 08:43:02;;;;;;;;;;;;;;;23.47;54.99;97519.82;585782;242;65108;-69
2022/11/08 08:45:30;;;;;;;;;;;;;;;23.47;54.51;97522.50;585793;242;68794;-68
2022/11/08 08:47:58;;;;;;;;;;;;;;;23.48;55.27;97529.46;585792;242;68548;-68
2022/11/08 08:50:26;;;;;;;;;;;;;;;23.48;54.71;97529.46;585823;242;63055;-68
2022/11/08 08:52:58;;;;;;;;;;;;;;;23.48;54.84;97532.14;585742;242;68871;-68
2022/11/08 08:55:26;;;;;;;;;;;;;;;23.49;54.53;97531.09;585406;242;66954;-67
2022/11/08 08:57:54;;;;;;;;;;;;;;;23.48;54.87;97526.78;585765;242;65130;-66
2022/11/08 09:00:21;;;;;;;;;;;;;;;23.48;54.92;97524.09;585694;242;68846;-67
2022/11/08 09:02:49;;;;;;;;;;;;;;;23.48;53.76;97532.94;586913;241;68957;-68
2022/11/08 09:05:16;;;;;;;;;;;;;;;23.48;54.88;97529.46;587662;241;65081;-69
2022/11/08 09:07:44;;;;;;;;;;;;;;;23.48;53.66;97524.09;587717;240;68863;-69
2022/11/08 09:10:12;;;;;;;;;;;;;;;23.48;55.10;97534.83;588263;240;66479;-68
2022/11/08 09:12:39;;;;;;;;;;;;;;;23.48;53.84;97532.14;588336;241;62921;-69
2022/11/08 09:15:07;;;;;;;;;;;;;;;23.48;53.59;97527.58;588128;241;66169;-68
2022/11/08 09:17:34;;;;;;;;;;;;;;;23.48;53.70;97527.58;588248;241;68524;-70
2022/11/08 09:20:02;;;;;;;;;;;;;;;23.47;53.90;97512.57;588237;241;65095;-69
2022/11/08 09:22:31;;;;;;;;;;;;;;;23.47;54.42;97515.25;588170;241;68741;-69
2022/11/08 09:24:58;;;;;;;;;;;;;;;23.47;53.52;97509.09;588182;241;68539;-68
2022/11/08 09:27:27;;;;;;;;;;;;;;;23.47;54.74;97511.77;588188;241;65141;-68
2022/11/08 09:29:54;;;;;;;;;;;;;;;23.48;53.74;97513.36;588117;241;66414;-68
2022/11/08 09:32:23;;;;;;;;;;;;;;;23.48;54.10;97513.36;588218;241;66380;-67
2022/11/08 09:34:51;;;;;;;;;;;;;;;23.48;55.64;97513.36;588165;241;65200;-67
2022/11/08 09:37:19;;;;;;;;;;;;;;;23.47;54.70;97507.20;588122;241;65614;-67
2022/11/08 09:39:46;;;;;;;;;;;;;;;23.48;54.33;97506.12;588245;241;66601;-69
2022/11/08 09:42:25;;;;;;;;;;;;;;;23.47;53.87;97509.09;588185;241;63900;-69
2022/11/08 09:44:54;;;;;;;;;;;;;;;23.48;55.35;97500.75;588175;241;68819;-67
2022/11/08 09:47:26;;;;;;;;;;;;;;;23.48;55.57;97499.95;588229;241;69364;-67
2022/11/08 09:49:55;;;;;;;;;;;;;;;23.48;54.06;97497.27;588101;241;62911;-68
2022/11/08 09:52:26;;;;;;;;;;;;;;;23.47;54.69;97496.48;587330;241;66619;-70
2022/11/08 09:54:55;;;;;;;;;;;;;;;23.48;53.91;97494.59;588232;241;68560;-68
2022/11/08 09:57:24;;;;;;;;;;;;;;;23.47;54.65;97499.16;588026;241;64948;-68
2022/11/08 09:59:53;;;;;;;;;;;;;;;23.49;54.22;97493.53;588070;239;68983;-67
2022/11/08 10:02:22;;;;;;;;;;;;;;;23.48;53.81;97497.27;588824;240;68494;-71
2022/11/08 10:04:54;;;;;;;;;;;;;;;23.49;54.20;97493.53;588852;240;66373;-68
2022/11/08 10:07:26;;;;;;;;;;;;;;;23.51;54.60;97495.92;590077;240;69628;-65
2022/11/08 10:09:59;;;;;;;;;;;;;;;23.51;55.15;97499.40;590057;240;69043;-67
2022/11/08 10:12:29;;;;;;;;;;;;;;;23.51;53.86;97494.03;590054;240;64996;-67
2022/11/08 10:15:14;;;;;;;;;;;;;;;23.51;54.47;97488.67;590080;240;68801;-66
2022/11/08 10:17:49;;;;;;;;;;;;;;;23.52;54.41;97484.92;590085;240;68541;-68
2022/11/08 10:20:19;;;;;;;;;;;;;;;23.53;54.37;97491.89;590107;240;63018;-67
2022/11/08 10:22:53;;;;;;;;;;;;;;;23.54;54.83;97490.00;590164;240;68872;-66
2022/11/08 10:25:25;;;;;;;;;;;;;;;23.53;54.41;97481.16;589831;240;68798;-68
2022/11/08 10:27:54;;;;;;;;;;;;;;;23.56;55.33;97490.53;590097;240;64871;-70
2022/11/08 10:30:38;;;;;;;;;;;;;;;23.55;55.25;97484.38;590089;240;66339;-75
2022/11/08 10:33:11;;;;;;;;;;;;;;;23.55;55.39;97481.69;590006;240;66091;-74
2022/11/08 10:35:40;;;;;;;;;;;;;;;23.55;54.71;97481.69;589843;240;64955;-74
2022/11/08 10:38:12;;;;;;;;;;;;;;;23.55;54.60;97473.64;590022;239;69005;-73
2022/11/08 10:40:44;;;;;;;;;;;;;;;23.56;55.44;97483.28;589855;240;67566;-75
2022/11/08 10:43:13;;;;;;;;;;;;;;;23.55;54.48;97475.53;589931;240;64919;-73
2022/11/08 10:45:40;;;;;;;;;;;;;;;23.55;55.41;97468.27;590115;240;68797;-73
2022/11/08 10:48:09;;;;;;;;;;;;;;;23.55;54.87;97468.27;589996;240;68752;-67
2022/11/08 10:50:44;;;;;;;;;;;;;;;23.55;54.52;97468.27;590121;240;65062;-69
2022/11/08 10:53:13;;;;;;;;;;;;;;;23.55;54.54;97468.27;590143;240;68936;-70
2022/11/08 10:55:42;;;;;;;;;;;;;;;23.55;54.52;97460.23;589970;240;68740;-76
2022/11/08 10:58:26;;;;;;;;;;;;;;;23.56;54.54;97461.82;589923;240;64747;-72
2022/11/08 11:01:12;;;;;;;;;;;;;;;23.55;54.36;97465.59;589693;240;68718;-70
2022/11/08 11:03:41;;;;;;;;;;;;;;;23.55;54.79;97457.55;586487;240;66535;-70
2022/11/08 11:06:28;;;;;;;;;;;;;;;23.55;54.08;97457.55;586361;242;62767;-69
2022/11/08 11:08:56;;;;;;;;;;;;;;;23.54;54.24;97461.29;586223;240;68963;-70
2022/11/08 11:11:34;;;;;;;;;;;;;;;23.54;53.82;97455.13;586343;242;68728;-71
2022/11/08 11:14:12;;;;;;;;;;;;;;;23.53;54.48;97451.64;586416;242;65381;-70
2022/11/08 11:16:41;;;;;;;;;;;;;;;23.53;54.12;97443.59;586279;242;68716;-69
2022/11/08 11:19:10;;;;;;;;;;;;;;;23.54;54.59;97450.55;583918;242;66289;-70
2022/11/08 11:21:38;;;;;;;;;;;;;;;23.54;54.79;97450.55;586248;242;65046;-70
2022/11/08 11:24:10;;;;;;;;;;;;;;;23.53;53.72;97448.97;586323;242;68895;-69
2022/11/08 11:26:39;;;;;;;;;;;;;;;23.54;55.00;97439.03;586374;242;69152;-68
2022/11/08 11:29:08;;;;;;;;;;;;;;;23.53;55.58;97440.92;586263;242;63042;-69
2022/11/08 11:31:37;;;;;;;;;;;;;;;23.54;53.86;97442.51;586120;242;66672;-70
2022/11/08 11:34:16;;;;;;;;;;;;;;;23.54;55.06;97444.39;585900;242;66628;-69
2022/11/08 11:36:45;;;;;;;;;;;;;;;23.53;55.16;97430.19;579667;242;63060;-68
2022/11/08 11:39:23;;;;;;;;;;;;;;;23.54;54.74;97426.41;583814;242;66597;-68
2022/11/08 11:41:52;;;;;;;;;;;;;;;23.53;53.94;97429.39;586364;242;68907;-68
2022/11/08 11:44:28;;;;;;;;;;;;;;;23.52;54.07;97431.28;585815;242;65053;-68
2022/11/08 11:46:57;;;;;;;;;;;;;;;23.54;53.91;97422.94;585853;242;69482;-70
2022/11/08 11:49:25;;;;;;;;;;;;;;;23.53;53.39;97427.50;586263;242;68571;-68
2022/11/08 11:51:55;;;;;;;;;;;;;;;23.54;54.19;97422.94;586259;242;65041;-69
2022/11/08 11:54:28;;;;;;;;;;;;;;;23.53;54.11;97424.82;586347;242;70361;-68
2022/11/08 11:57:00;;;;;;;;;;;;;;;23.54;53.84;97421.05;586030;242;68854;-68
2022/11/08 11:59:29;;;;;;;;;;;;;;;23.54;54.04;97423.73;586248;242;62837;-69
2022/11/08 12:02:01;;;;;;;;;;;;;;;23.54;54.13;97417.57;587231;240;66606;-68
2022/11/08 12:04:30;;;;;;;;;;;;;;;23.54;54.71;97415.69;589653;240;66555;-68
2022/11/08 12:06:58;;;;;;;;;;;;;;;23.54;53.83;97418.36;590238;240;63110;-67
2022/11/08 12:09:42;;;;;;;;;;;;;;;23.54;53.57;97415.69;591351;240;66536;-66
2022/11/08 12:12:12;;;;;;;;;;;;;;;23.55;53.95;97411.14;591371;236;66612;-66
2022/11/08 12:14:41;;;;;;;;;;;;;;;23.55;53.94;97411.14;591382;240;62821;-68
2022/11/08 12:17:26;;;;;;;;;;;;;;;23.55;54.73;97411.14;591378;236;68546;-68
2022/11/08 12:20:07;;;;;;;;;;;;;;;23.56;53.85;97410.05;591285;240;68608;-68
2022/11/08 12:22:45;;;;;;;;;;;;;;;23.55;54.58;97409.26;591321;240;65256;-68
2022/11/08 12:25:31;;;;;;;;;;;;;;;23.56;53.99;97408.16;591408;240;68764;-70
2022/11/08 12:28:06;;;;;;;;;;;;;;;23.56;53.86;97405.48;591383;240;66444;-68
2022/11/08 12:30:44;;;;;;;;;;;;;;;23.57;54.06;97400.91;590690;240;63138;-69
2022/11/08 12:33:29;;;;;;;;;;;;;;;23.55;54.49;97403.89;590320;240;68933;-68
2022/11/08 12:35:58;;;;;;;;;;;;;;;23.55;54.44;97398.52;568703;247;68551;-69
2022/11/08 12:38:36;;;;;;;;;;;;;;;23.56;54.25;97402.00;583319;240;63084;-70
2022/11/08 12:41:10;;;;;;;;;;;;;;;23.56;54.48;97402.00;590010;240;68986;-69
2022/11/08 12:43:39;;;;;;;;;;;;;;;23.55;54.06;97406.58;590099;240;70767;-68
2022/11/08 12:46:11;;;;;;;;;;;;;;;23.57;54.39;97407.10;590122;240;65130;-69
2022/11/08 12:48:47;;;;;;;;;;;;;;;23.57;54.23;97404.42;590026;240;68921;-71
2022/11/08 12:51:17;;;;;;;;;;;;;;;23.56;54.42;97407.38;589971;240;66467;-69
2022/11/08 12:53:47;;;;;;;;;;;;;;;23.56;54.53;97405.48;589621;240;64901;-68
2022/11/08 12:56:22;;;;;;;;;;;;;;;23.56;54.31;97405.48;589854;240;67514;-68
2022/11/08 12:58:51;;;;;;;;;;;;;;;23.56;54.73;97407.38;590055;240;68592;-70
2022/11/08 13:01:21;;;;;;;;;;;;;;;23.57;54.82;97407.10;590076;240;64891;-69
2022/11/08 13:03:50;;;;;;;;;;;;;;;23.56;54.43;97402.00;590012;240;69441;-70
2022/11/08 13:06:23;;;;;;;;;;;;;;;23.57;54.45;97401.73;590090;240;68574;-68
2022/11/08 13:09:08;;;;;;;;;;;;;;;23.57;54.74;97401.73;590033;240;65091;-70
2022/11/08 13:11:41;;;;;;;;;;;;;;;23.56;55.52;97407.38;590088;240;70070;-68
2022/11/08 13:14:13;;;;;;;;;;;;;;;23.53;54.51;97408.72;589667;240;68471;-69
2022/11/08 13:16:42;;;;;;;;;;;;;;;23.54;55.74;97409.52;590109;240;66221;-69
2022/11/08 13:19:11;;;;;;;;;;;;;;;23.51;55.74;97413.56;590123;240;69519;-68